sensor_id;sensor_type;location;lat;lon;timestamp;P1;durP1;ratioP1;P2;durP2;ratioP2
20908;SDS011;10614;53.198;6.570;2024-03-02T00:01:58;6.85;;;3.75;;
20908;SDS011;10614;53.198;6.570;2024-03-02T00:04:00;5.90;;;3.20;;
20908;SDS011;10614;53.198;6.570;2024-03-02T00:06:05;6.53;;;3.65;;
20908;SDS011;10614;53.198;6.570;2024-03-02T00:08:08;5.53;;;3.60;;
20908;SDS011;10614;53.198;6.570;2024-03-02T00:10:11;8.35;;;3.85;;
20908;SDS011;10614;53.198;6.570;2024-03-02T00:12:17;5.35;;;3.33;;
20908;SDS011;10614;53.198;6.570;2024-03-02T00:14:24;6.60;;;3.90;;
20908;SDS011;10614;53.198;6.570;2024-03-02T00:16:29;4.63;;;3.53;;
20908;SDS011;10614;53.198;6.570;2024-03-02T00:18:31;5.53;;;3.70;;
20908;SDS011;10614;53.198;6.570;2024-03-02T00:20:34;5.25;;;3.60;;
20908;SDS011;10614;53.198;6.570;2024-03-02T00:22:37;5.72;;;3.47;;
20908;SDS011;10614;53.198;6.570;2024-03-02T00:24:39;5.85;;;3.75;;
20908;SDS011;10614;53.198;6.570;2024-03-02T00:26:43;7.90;;;4.07;;
20908;SDS011;10614;53.198;6.570;2024-03-02T00:28:52;9.77;;;3.78;;
20908;SDS011;10614;53.198;6.570;2024-03-02T00:30:57;6.25;;;3.83;;
20908;SDS011;10614;53.198;6.570;2024-03-02T00:32:59;7.25;;;3.80;;
20908;SDS011;10614;53.198;6.570;2024-03-02T00:35:01;5.93;;;3.75;;
20908;SDS011;10614;53.198;6.570;2024-03-02T00:37:05;5.20;;;3.50;;
20908;SDS011;10614;53.198;6.570;2024-03-02T00:39:10;6.88;;;3.65;;
20908;SDS011;10614;53.198;6.570;2024-03-02T00:41:19;7.60;;;3.90;;
20908;SDS011;10614;53.198;6.570;2024-03-02T00:43:40;6.18;;;3.80;;
20908;SDS011;10614;53.198;6.570;2024-03-02T00:45:43;6.30;;;3.85;;
20908;SDS011;10614;53.198;6.570;2024-03-02T00:47:45;5.60;;;3.55;;
20908;SDS011;10614;53.198;6.570;2024-03-02T00:49:47;7.75;;;4.05;;
20908;SDS011;10614;53.198;6.570;2024-03-02T00:51:51;6.18;;;4.03;;
20908;SDS011;10614;53.198;6.570;2024-03-02T00:53:57;7.85;;;3.60;;
20908;SDS011;10614;53.198;6.570;2024-03-02T00:56:02;7.35;;;3.90;;
20908;SDS011;10614;53.198;6.570;2024-03-02T00:58:03;7.20;;;3.72;;
20908;SDS011;10614;53.198;6.570;2024-03-02T01:00:06;6.47;;;3.67;;
20908;SDS011;10614;53.198;6.570;2024-03-02T01:02:12;6.18;;;3.67;;
20908;SDS011;10614;53.198;6.570;2024-03-02T01:04:13;6.35;;;3.38;;
20908;SDS011;10614;53.198;6.570;2024-03-02T01:06:16;7.10;;;3.70;;
20908;SDS011;10614;53.198;6.570;2024-03-02T01:08:19;6.93;;;3.70;;
20908;SDS011;10614;53.198;6.570;2024-03-02T01:10:20;5.57;;;3.70;;
20908;SDS011;10614;53.198;6.570;2024-03-02T01:12:23;5.75;;;3.35;;
20908;SDS011;10614;53.198;6.570;2024-03-02T01:14:24;6.10;;;3.90;;
20908;SDS011;10614;53.198;6.570;2024-03-02T01:16:26;6.20;;;3.80;;
20908;SDS011;10614;53.198;6.570;2024-03-02T01:18:28;6.28;;;3.67;;
20908;SDS011;10614;53.198;6.570;2024-03-02T01:20:30;9.30;;;4.00;;
20908;SDS011;10614;53.198;6.570;2024-03-02T01:22:33;7.63;;;4.20;;
20908;SDS011;10614;53.198;6.570;2024-03-02T01:24:35;5.28;;;3.42;;
20908;SDS011;10614;53.198;6.570;2024-03-02T01:26:38;6.47;;;4.07;;
20908;SDS011;10614;53.198;6.570;2024-03-02T01:28:41;6.68;;;4.07;;
20908;SDS011;10614;53.198;6.570;2024-03-02T01:30:43;6.57;;;4.20;;
20908;SDS011;10614;53.198;6.570;2024-03-02T01:32:45;7.13;;;3.90;;
20908;SDS011;10614;53.198;6.570;2024-03-02T01:34:47;7.53;;;4.50;;
20908;SDS011;10614;53.198;6.570;2024-03-02T01:36:49;7.70;;;4.28;;
20908;SDS011;10614;53.198;6.570;2024-03-02T01:38:51;6.88;;;4.43;;
20908;SDS011;10614;53.198;6.570;2024-03-02T01:40:52;6.65;;;4.60;;
20908;SDS011;10614;53.198;6.570;2024-03-02T01:42:55;6.97;;;3.92;;
20908;SDS011;10614;53.198;6.570;2024-03-02T01:44:59;7.05;;;4.45;;
20908;SDS011;10614;53.198;6.570;2024-03-02T01:47:01;7.13;;;4.60;;
20908;SDS011;10614;53.198;6.570;2024-03-02T01:49:04;8.45;;;4.63;;
20908;SDS011;10614;53.198;6.570;2024-03-02T01:51:06;7.95;;;4.38;;
20908;SDS011;10614;53.198;6.570;2024-03-02T01:53:08;6.90;;;4.20;;
20908;SDS011;10614;53.198;6.570;2024-03-02T01:55:11;6.85;;;4.35;;
20908;SDS011;10614;53.198;6.570;2024-03-02T01:57:12;7.65;;;4.32;;
20908;SDS011;10614;53.198;6.570;2024-03-02T01:59:14;7.40;;;4.20;;
20908;SDS011;10614;53.198;6.570;2024-03-02T02:01:18;6.82;;;4.10;;
20908;SDS011;10614;53.198;6.570;2024-03-02T02:03:20;9.15;;;4.35;;
20908;SDS011;10614;53.198;6.570;2024-03-02T02:05:22;7.20;;;4.47;;
20908;SDS011;10614;53.198;6.570;2024-03-02T02:07:24;6.03;;;3.78;;
20908;SDS011;10614;53.198;6.570;2024-03-02T02:09:25;8.48;;;4.40;;
20908;SDS011;10614;53.198;6.570;2024-03-02T02:11:27;7.10;;;4.20;;
20908;SDS011;10614;53.198;6.570;2024-03-02T02:13:28;6.95;;;4.18;;
20908;SDS011;10614;53.198;6.570;2024-03-02T02:15:30;7.35;;;4.10;;
20908;SDS011;10614;53.198;6.570;2024-03-02T02:17:36;6.50;;;3.90;;
20908;SDS011;10614;53.198;6.570;2024-03-02T02:19:40;7.35;;;4.10;;
20908;SDS011;10614;53.198;6.570;2024-03-02T02:21:43;8.40;;;4.30;;
20908;SDS011;10614;53.198;6.570;2024-03-02T02:23:45;8.65;;;4.55;;
20908;SDS011;10614;53.198;6.570;2024-03-02T02:25:48;7.43;;;4.63;;
20908;SDS011;10614;53.198;6.570;2024-03-02T02:27:50;7.65;;;4.38;;
20908;SDS011;10614;53.198;6.570;2024-03-02T02:29:51;7.00;;;4.13;;
20908;SDS011;10614;53.198;6.570;2024-03-02T02:31:53;6.72;;;4.05;;
20908;SDS011;10614;53.198;6.570;2024-03-02T02:33:53;7.95;;;4.43;;
20908;SDS011;10614;53.198;6.570;2024-03-02T02:35:55;6.30;;;4.00;;
20908;SDS011;10614;53.198;6.570;2024-03-02T02:37:59;7.05;;;4.15;;
20908;SDS011;10614;53.198;6.570;2024-03-02T02:40:01;7.95;;;4.40;;
20908;SDS011;10614;53.198;6.570;2024-03-02T02:42:05;7.22;;;4.45;;
20908;SDS011;10614;53.198;6.570;2024-03-02T02:44:07;6.43;;;4.10;;
20908;SDS011;10614;53.198;6.570;2024-03-02T02:46:11;8.68;;;4.03;;
20908;SDS011;10614;53.198;6.570;2024-03-02T02:48:13;7.68;;;3.78;;
20908;SDS011;10614;53.198;6.570;2024-03-02T02:50:15;7.50;;;3.30;;
20908;SDS011;10614;53.198;6.570;2024-03-02T02:52:17;6.57;;;3.80;;
20908;SDS011;10614;53.198;6.570;2024-03-02T02:54:20;7.40;;;3.65;;
20908;SDS011;10614;53.198;6.570;2024-03-02T02:56:22;6.70;;;3.58;;
20908;SDS011;10614;53.198;6.570;2024-03-02T02:58:24;6.88;;;3.55;;
20908;SDS011;10614;53.198;6.570;2024-03-02T03:00:26;6.85;;;3.63;;
20908;SDS011;10614;53.198;6.570;2024-03-02T03:02:28;6.53;;;3.38;;
20908;SDS011;10614;53.198;6.570;2024-03-02T03:04:29;6.40;;;3.55;;
20908;SDS011;10614;53.198;6.570;2024-03-02T03:06:31;4.97;;;3.00;;
20908;SDS011;10614;53.198;6.570;2024-03-02T03:08:33;7.05;;;3.40;;
20908;SDS011;10614;53.198;6.570;2024-03-02T03:10:36;5.57;;;3.22;;
20908;SDS011;10614;53.198;6.570;2024-03-02T03:12:38;6.78;;;3.08;;
20908;SDS011;10614;53.198;6.570;2024-03-02T03:14:41;5.32;;;3.08;;
20908;SDS011;10614;53.198;6.570;2024-03-02T03:16:41;6.22;;;2.95;;
20908;SDS011;10614;53.198;6.570;2024-03-02T03:18:43;4.85;;;2.65;;
20908;SDS011;10614;53.198;6.570;2024-03-02T03:20:45;4.63;;;2.78;;
20908;SDS011;10614;53.198;6.570;2024-03-02T03:22:47;6.05;;;2.75;;
20908;SDS011;10614;53.198;6.570;2024-03-02T03:24:49;4.38;;;2.78;;
20908;SDS011;10614;53.198;6.570;2024-03-02T03:26:53;4.82;;;2.78;;
20908;SDS011;10614;53.198;6.570;2024-03-02T03:28:54;5.25;;;3.10;;
20908;SDS011;10614;53.198;6.570;2024-03-02T03:30:56;4.45;;;2.80;;
20908;SDS011;10614;53.198;6.570;2024-03-02T03:32:58;4.32;;;2.65;;
20908;SDS011;10614;53.198;6.570;2024-03-02T03:34:59;3.47;;;2.42;;
20908;SDS011;10614;53.198;6.570;2024-03-02T03:37:01;5.80;;;3.25;;
20908;SDS011;10614;53.198;6.570;2024-03-02T03:39:02;5.53;;;2.83;;
20908;SDS011;10614;53.198;6.570;2024-03-02T03:41:06;5.00;;;2.60;;
20908;SDS011;10614;53.198;6.570;2024-03-02T03:43:09;4.35;;;2.63;;
20908;SDS011;10614;53.198;6.570;2024-03-02T03:45:11;5.47;;;2.78;;
20908;SDS011;10614;53.198;6.570;2024-03-02T03:47:13;5.03;;;2.70;;
20908;SDS011;10614;53.198;6.570;2024-03-02T03:49:13;6.82;;;3.05;;
20908;SDS011;10614;53.198;6.570;2024-03-02T03:51:15;5.57;;;3.00;;
20908;SDS011;10614;53.198;6.570;2024-03-02T03:53:17;5.20;;;2.72;;
20908;SDS011;10614;53.198;6.570;2024-03-02T03:55:20;5.55;;;3.05;;
20908;SDS011;10614;53.198;6.570;2024-03-02T03:57:21;6.25;;;3.20;;
20908;SDS011;10614;53.198;6.570;2024-03-02T03:59:25;4.93;;;2.85;;
20908;SDS011;10614;53.198;6.570;2024-03-02T04:01:27;5.20;;;2.90;;
20908;SDS011;10614;53.198;6.570;2024-03-02T04:03:29;8.38;;;3.30;;
20908;SDS011;10614;53.198;6.570;2024-03-02T04:05:31;5.47;;;2.92;;
20908;SDS011;10614;53.198;6.570;2024-03-02T04:07:33;6.68;;;3.35;;
20908;SDS011;10614;53.198;6.570;2024-03-02T04:09:39;4.82;;;2.80;;
20908;SDS011;10614;53.198;6.570;2024-03-02T04:11:41;4.68;;;2.85;;
20908;SDS011;10614;53.198;6.570;2024-03-02T04:13:43;5.35;;;2.85;;
20908;SDS011;10614;53.198;6.570;2024-03-02T04:15:46;6.63;;;3.15;;
20908;SDS011;10614;53.198;6.570;2024-03-02T04:17:48;6.22;;;3.40;;
20908;SDS011;10614;53.198;6.570;2024-03-02T04:21:54;5.80;;;3.38;;
20908;SDS011;10614;53.198;6.570;2024-03-02T04:23:56;6.57;;;3.33;;
20908;SDS011;10614;53.198;6.570;2024-03-02T04:26:01;5.95;;;3.38;;
20908;SDS011;10614;53.198;6.570;2024-03-02T04:28:03;4.83;;;3.03;;
20908;SDS011;10614;53.198;6.570;2024-03-02T04:30:05;6.97;;;3.17;;
20908;SDS011;10614;53.198;6.570;2024-03-02T04:32:09;4.68;;;3.08;;
20908;SDS011;10614;53.198;6.570;2024-03-02T04:34:11;6.93;;;3.10;;
20908;SDS011;10614;53.198;6.570;2024-03-02T04:36:13;5.60;;;2.97;;
20908;SDS011;10614;53.198;6.570;2024-03-02T04:38:15;4.43;;;2.70;;
20908;SDS011;10614;53.198;6.570;2024-03-02T04:40:17;4.63;;;3.15;;
20908;SDS011;10614;53.198;6.570;2024-03-02T04:42:19;5.90;;;3.15;;
20908;SDS011;10614;53.198;6.570;2024-03-02T04:44:21;7.80;;;3.80;;
20908;SDS011;10614;53.198;6.570;2024-03-02T04:46:22;6.15;;;3.40;;
20908;SDS011;10614;53.198;6.570;2024-03-02T04:48:26;4.50;;;2.88;;
20908;SDS011;10614;53.198;6.570;2024-03-02T04:50:28;5.07;;;3.17;;
20908;SDS011;10614;53.198;6.570;2024-03-02T04:52:30;6.07;;;3.33;;
20908;SDS011;10614;53.198;6.570;2024-03-02T04:54:32;5.63;;;3.30;;
20908;SDS011;10614;53.198;6.570;2024-03-02T04:56:54;4.80;;;3.00;;
20908;SDS011;10614;53.198;6.570;2024-03-02T04:58:54;5.47;;;2.78;;
20908;SDS011;10614;53.198;6.570;2024-03-02T05:00:56;6.40;;;3.20;;
20908;SDS011;10614;53.198;6.570;2024-03-02T05:02:58;4.82;;;2.75;;
20908;SDS011;10614;53.198;6.570;2024-03-02T05:05:00;3.95;;;2.70;;
20908;SDS011;10614;53.198;6.570;2024-03-02T05:07:02;6.18;;;2.92;;
20908;SDS011;10614;53.198;6.570;2024-03-02T05:09:04;4.97;;;2.90;;
20908;SDS011;10614;53.198;6.570;2024-03-02T05:11:05;5.70;;;2.83;;
20908;SDS011;10614;53.198;6.570;2024-03-02T05:13:24;6.03;;;3.00;;
20908;SDS011;10614;53.198;6.570;2024-03-02T05:15:26;4.20;;;2.83;;
20908;SDS011;10614;53.198;6.570;2024-03-02T05:17:27;5.30;;;3.10;;
20908;SDS011;10614;53.198;6.570;2024-03-02T05:19:28;4.85;;;2.72;;
20908;SDS011;10614;53.198;6.570;2024-03-02T05:21:32;5.78;;;2.97;;
20908;SDS011;10614;53.198;6.570;2024-03-02T05:23:33;5.13;;;3.15;;
20908;SDS011;10614;53.198;6.570;2024-03-02T05:25:35;4.78;;;2.80;;
20908;SDS011;10614;53.198;6.570;2024-03-02T05:27:37;4.25;;;2.83;;
20908;SDS011;10614;53.198;6.570;2024-03-02T05:29:39;4.30;;;2.50;;
20908;SDS011;10614;53.198;6.570;2024-03-02T05:31:40;5.65;;;2.92;;
20908;SDS011;10614;53.198;6.570;2024-03-02T05:33:42;5.43;;;3.38;;
20908;SDS011;10614;53.198;6.570;2024-03-02T05:35:44;6.45;;;3.35;;
20908;SDS011;10614;53.198;6.570;2024-03-02T05:37:48;5.82;;;3.10;;
20908;SDS011;10614;53.198;6.570;2024-03-02T05:39:50;6.88;;;3.28;;
20908;SDS011;10614;53.198;6.570;2024-03-02T05:41:51;5.88;;;3.08;;
20908;SDS011;10614;53.198;6.570;2024-03-02T05:43:53;6.05;;;3.05;;
20908;SDS011;10614;53.198;6.570;2024-03-02T05:45:54;5.43;;;2.90;;
20908;SDS011;10614;53.198;6.570;2024-03-02T05:47:56;5.07;;;3.10;;
20908;SDS011;10614;53.198;6.570;2024-03-02T05:49:58;7.03;;;3.40;;
20908;SDS011;10614;53.198;6.570;2024-03-02T05:52:00;5.30;;;3.28;;
20908;SDS011;10614;53.198;6.570;2024-03-02T05:54:04;5.68;;;3.20;;
20908;SDS011;10614;53.198;6.570;2024-03-02T05:56:06;5.65;;;3.15;;
20908;SDS011;10614;53.198;6.570;2024-03-02T05:58:08;5.03;;;2.90;;
20908;SDS011;10614;53.198;6.570;2024-03-02T06:00:22;5.53;;;3.30;;
20908;SDS011;10614;53.198;6.570;2024-03-02T06:02:24;5.25;;;3.40;;
20908;SDS011;10614;53.198;6.570;2024-03-02T06:04:26;5.38;;;3.20;;
20908;SDS011;10614;53.198;6.570;2024-03-02T06:06:28;5.45;;;3.05;;
20908;SDS011;10614;53.198;6.570;2024-03-02T06:08:30;6.40;;;3.38;;
20908;SDS011;10614;53.198;6.570;2024-03-02T06:10:33;4.65;;;3.05;;
20908;SDS011;10614;53.198;6.570;2024-03-02T06:12:35;5.03;;;3.03;;
20908;SDS011;10614;53.198;6.570;2024-03-02T06:14:37;4.40;;;2.83;;
20908;SDS011;10614;53.198;6.570;2024-03-02T06:16:39;4.88;;;2.80;;
20908;SDS011;10614;53.198;6.570;2024-03-02T06:18:41;5.68;;;3.17;;
20908;SDS011;10614;53.198;6.570;2024-03-02T06:20:42;5.65;;;3.42;;
20908;SDS011;10614;53.198;6.570;2024-03-02T06:22:44;4.65;;;2.80;;
20908;SDS011;10614;53.198;6.570;2024-03-02T06:24:45;7.47;;;3.25;;
20908;SDS011;10614;53.198;6.570;2024-03-02T06:26:48;5.68;;;2.92;;
20908;SDS011;10614;53.198;6.570;2024-03-02T06:28:50;6.43;;;3.20;;
20908;SDS011;10614;53.198;6.570;2024-03-02T06:30:52;5.47;;;2.88;;
20908;SDS011;10614;53.198;6.570;2024-03-02T06:32:54;5.22;;;3.28;;
20908;SDS011;10614;53.198;6.570;2024-03-02T06:34:56;5.00;;;2.90;;
20908;SDS011;10614;53.198;6.570;2024-03-02T06:36:57;6.40;;;2.90;;
20908;SDS011;10614;53.198;6.570;2024-03-02T06:38:58;4.32;;;2.58;;
20908;SDS011;10614;53.198;6.570;2024-03-02T06:41:00;5.95;;;2.67;;
20908;SDS011;10614;53.198;6.570;2024-03-02T06:43:03;4.82;;;2.78;;
20908;SDS011;10614;53.198;6.570;2024-03-02T06:45:05;4.43;;;2.50;;
20908;SDS011;10614;53.198;6.570;2024-03-02T06:47:06;4.72;;;2.53;;
20908;SDS011;10614;53.198;6.570;2024-03-02T06:49:08;5.28;;;3.10;;
20908;SDS011;10614;53.198;6.570;2024-03-02T06:51:10;5.18;;;2.78;;
20908;SDS011;10614;53.198;6.570;2024-03-02T06:53:12;4.03;;;2.70;;
20908;SDS011;10614;53.198;6.570;2024-03-02T06:57:19;4.05;;;2.60;;
20908;SDS011;10614;53.198;6.570;2024-03-02T06:59:22;5.45;;;2.72;;
20908;SDS011;10614;53.198;6.570;2024-03-02T07:01:24;4.50;;;2.53;;
20908;SDS011;10614;53.198;6.570;2024-03-02T07:03:28;5.75;;;2.30;;
20908;SDS011;10614;53.198;6.570;2024-03-02T07:05:33;5.57;;;2.75;;
20908;SDS011;10614;53.198;6.570;2024-03-02T07:09:36;4.03;;;2.30;;
20908;SDS011;10614;53.198;6.570;2024-03-02T07:11:38;3.78;;;1.80;;
20908;SDS011;10614;53.198;6.570;2024-03-02T07:13:40;4.75;;;2.40;;
20908;SDS011;10614;53.198;6.570;2024-03-02T07:15:43;5.43;;;2.40;;
20908;SDS011;10614;53.198;6.570;2024-03-02T07:17:59;3.17;;;2.15;;
20908;SDS011;10614;53.198;6.570;2024-03-02T07:20:02;4.88;;;2.25;;
20908;SDS011;10614;53.198;6.570;2024-03-02T07:22:07;4.38;;;2.35;;
20908;SDS011;10614;53.198;6.570;2024-03-02T07:24:09;4.65;;;2.40;;
20908;SDS011;10614;53.198;6.570;2024-03-02T07:26:13;4.07;;;2.28;;
20908;SDS011;10614;53.198;6.570;2024-03-02T07:28:18;4.10;;;2.50;;
20908;SDS011;10614;53.198;6.570;2024-03-02T07:30:23;4.10;;;2.22;;
20908;SDS011;10614;53.198;6.570;2024-03-02T07:34:28;3.42;;;2.22;;
20908;SDS011;10614;53.198;6.570;2024-03-02T07:36:30;4.28;;;2.28;;
20908;SDS011;10614;53.198;6.570;2024-03-02T07:38:32;3.85;;;2.28;;
20908;SDS011;10614;53.198;6.570;2024-03-02T07:40:35;3.90;;;2.42;;
20908;SDS011;10614;53.198;6.570;2024-03-02T07:42:37;5.45;;;2.97;;
20908;SDS011;10614;53.198;6.570;2024-03-02T07:44:40;4.43;;;2.72;;
20908;SDS011;10614;53.198;6.570;2024-03-02T07:46:42;5.10;;;2.83;;
20908;SDS011;10614;53.198;6.570;2024-03-02T07:48:51;5.85;;;3.38;;
20908;SDS011;10614;53.198;6.570;2024-03-02T07:50:53;6.25;;;3.30;;
20908;SDS011;10614;53.198;6.570;2024-03-02T07:52:55;5.65;;;3.60;;
20908;SDS011;10614;53.198;6.570;2024-03-02T07:54:57;7.07;;;3.63;;
20908;SDS011;10614;53.198;6.570;2024-03-02T07:56:59;5.57;;;3.50;;
20908;SDS011;10614;53.198;6.570;2024-03-02T07:59:02;5.70;;;3.33;;
20908;SDS011;10614;53.198;6.570;2024-03-02T08:01:05;6.65;;;3.25;;
20908;SDS011;10614;53.198;6.570;2024-03-02T08:03:07;7.13;;;3.10;;
20908;SDS011;10614;53.198;6.570;2024-03-02T08:05:12;5.72;;;3.47;;
20908;SDS011;10614;53.198;6.570;2024-03-02T08:07:14;6.68;;;3.47;;
20908;SDS011;10614;53.198;6.570;2024-03-02T08:09:15;5.07;;;2.90;;
20908;SDS011;10614;53.198;6.570;2024-03-02T08:11:17;8.32;;;3.42;;
20908;SDS011;10614;53.198;6.570;2024-03-02T08:13:20;6.28;;;2.92;;
20908;SDS011;10614;53.198;6.570;2024-03-02T08:15:23;5.70;;;3.10;;
20908;SDS011;10614;53.198;6.570;2024-03-02T08:17:24;5.65;;;3.38;;
20908;SDS011;10614;53.198;6.570;2024-03-02T08:19:27;5.25;;;2.83;;
20908;SDS011;10614;53.198;6.570;2024-03-02T08:21:30;4.55;;;2.70;;
20908;SDS011;10614;53.198;6.570;2024-03-02T08:23:35;4.82;;;2.80;;
20908;SDS011;10614;53.198;6.570;2024-03-02T08:25:37;5.95;;;2.88;;
20908;SDS011;10614;53.198;6.570;2024-03-02T08:27:39;6.30;;;3.28;;
20908;SDS011;10614;53.198;6.570;2024-03-02T08:29:41;4.75;;;2.60;;
20908;SDS011;10614;53.198;6.570;2024-03-02T08:31:43;4.97;;;2.90;;
20908;SDS011;10614;53.198;6.570;2024-03-02T08:33:45;4.57;;;2.97;;
20908;SDS011;10614;53.198;6.570;2024-03-02T08:35:47;4.53;;;2.70;;
20908;SDS011;10614;53.198;6.570;2024-03-02T08:37:50;4.85;;;2.53;;
20908;SDS011;10614;53.198;6.570;2024-03-02T08:39:52;4.32;;;2.10;;
20908;SDS011;10614;53.198;6.570;2024-03-02T08:41:55;3.92;;;2.15;;
20908;SDS011;10614;53.198;6.570;2024-03-02T08:43:57;3.55;;;1.95;;
20908;SDS011;10614;53.198;6.570;2024-03-02T08:46:01;3.40;;;2.03;;
20908;SDS011;10614;53.198;6.570;2024-03-02T08:48:04;3.45;;;2.20;;
20908;SDS011;10614;53.198;6.570;2024-03-02T08:50:07;3.65;;;1.88;;
20908;SDS011;10614;53.198;6.570;2024-03-02T08:52:10;3.42;;;1.88;;
20908;SDS011;10614;53.198;6.570;2024-03-02T08:54:13;2.17;;;1.40;;
20908;SDS011;10614;53.198;6.570;2024-03-02T08:56:20;2.45;;;1.50;;
20908;SDS011;10614;53.198;6.570;2024-03-02T08:58:31;2.92;;;1.67;;
20908;SDS011;10614;53.198;6.570;2024-03-02T09:00:33;3.88;;;1.50;;
20908;SDS011;10614;53.198;6.570;2024-03-02T09:02:49;2.38;;;1.40;;
20908;SDS011;10614;53.198;6.570;2024-03-02T09:04:52;2.22;;;1.52;;
20908;SDS011;10614;53.198;6.570;2024-03-02T09:06:53;4.13;;;1.70;;
20908;SDS011;10614;53.198;6.570;2024-03-02T09:08:56;3.28;;;1.60;;
20908;SDS011;10614;53.198;6.570;2024-03-02T09:11:00;3.13;;;1.50;;
20908;SDS011;10614;53.198;6.570;2024-03-02T09:15:05;2.13;;;1.30;;
20908;SDS011;10614;53.198;6.570;2024-03-02T09:17:07;1.92;;;1.30;;
20908;SDS011;10614;53.198;6.570;2024-03-02T09:19:10;2.03;;;0.90;;
20908;SDS011;10614;53.198;6.570;2024-03-02T09:21:12;4.00;;;1.50;;
20908;SDS011;10614;53.198;6.570;2024-03-02T09:23:15;3.80;;;1.35;;
20908;SDS011;10614;53.198;6.570;2024-03-02T09:25:17;2.60;;;1.33;;
20908;SDS011;10614;53.198;6.570;2024-03-02T09:27:20;2.17;;;1.25;;
20908;SDS011;10614;53.198;6.570;2024-03-02T09:29:22;4.97;;;2.53;;
20908;SDS011;10614;53.198;6.570;2024-03-02T09:31:24;4.30;;;2.05;;
20908;SDS011;10614;53.198;6.570;2024-03-02T09:33:26;4.22;;;1.92;;
20908;SDS011;10614;53.198;6.570;2024-03-02T09:35:29;2.38;;;1.30;;
20908;SDS011;10614;53.198;6.570;2024-03-02T09:37:31;3.20;;;1.60;;
20908;SDS011;10614;53.198;6.570;2024-03-02T09:39:33;7.50;;;2.80;;
20908;SDS011;10614;53.198;6.570;2024-03-02T09:41:35;5.18;;;1.90;;
20908;SDS011;10614;53.198;6.570;2024-03-02T09:43:39;3.05;;;1.17;;
20908;SDS011;10614;53.198;6.570;2024-03-02T09:45:42;2.72;;;1.35;;
20908;SDS011;10614;53.198;6.570;2024-03-02T09:47:51;2.25;;;1.10;;
20908;SDS011;10614;53.198;6.570;2024-03-02T09:49:52;3.13;;;1.08;;
20908;SDS011;10614;53.198;6.570;2024-03-02T09:51:55;2.28;;;1.00;;
20908;SDS011;10614;53.198;6.570;2024-03-02T09:53:58;2.45;;;1.40;;
20908;SDS011;10614;53.198;6.570;2024-03-02T09:56:03;5.07;;;1.00;;
20908;SDS011;10614;53.198;6.570;2024-03-02T09:58:06;3.65;;;1.10;;
20908;SDS011;10614;53.198;6.570;2024-03-02T10:00:10;2.83;;;1.05;;
20908;SDS011;10614;53.198;6.570;2024-03-02T10:02:14;2.47;;;1.20;;
20908;SDS011;10614;53.198;6.570;2024-03-02T10:04:16;2.20;;;1.15;;
20908;SDS011;10614;53.198;6.570;2024-03-02T10:06:19;2.15;;;0.88;;
20908;SDS011;10614;53.198;6.570;2024-03-02T10:08:21;4.32;;;1.15;;
20908;SDS011;10614;53.198;6.570;2024-03-02T10:10:26;2.40;;;1.13;;
20908;SDS011;10614;53.198;6.570;2024-03-02T10:12:40;2.20;;;1.10;;
20908;SDS011;10614;53.198;6.570;2024-03-02T10:14:42;3.17;;;1.08;;
20908;SDS011;10614;53.198;6.570;2024-03-02T10:16:46;4.10;;;1.40;;
20908;SDS011;10614;53.198;6.570;2024-03-02T10:18:48;2.58;;;1.10;;
20908;SDS011;10614;53.198;6.570;2024-03-02T10:20:49;3.38;;;1.20;;
20908;SDS011;10614;53.198;6.570;2024-03-02T10:22:51;2.45;;;1.00;;
20908;SDS011;10614;53.198;6.570;2024-03-02T10:24:52;3.38;;;1.23;;
20908;SDS011;10614;53.198;6.570;2024-03-02T10:26:55;2.72;;;1.08;;
20908;SDS011;10614;53.198;6.570;2024-03-02T10:28:56;1.60;;;1.00;;
20908;SDS011;10614;53.198;6.570;2024-03-02T10:31:02;2.35;;;1.02;;
20908;SDS011;10614;53.198;6.570;2024-03-02T10:33:06;2.30;;;1.10;;
20908;SDS011;10614;53.198;6.570;2024-03-02T10:35:11;4.07;;;1.60;;
20908;SDS011;10614;53.198;6.570;2024-03-02T10:37:14;4.03;;;1.55;;
20908;SDS011;10614;53.198;6.570;2024-03-02T10:39:17;4.28;;;1.38;;
20908;SDS011;10614;53.198;6.570;2024-03-02T10:41:18;3.75;;;1.30;;
20908;SDS011;10614;53.198;6.570;2024-03-02T10:43:33;5.40;;;1.48;;
20908;SDS011;10614;53.198;6.570;2024-03-02T10:45:36;3.22;;;1.35;;
20908;SDS011;10614;53.198;6.570;2024-03-02T10:47:38;3.40;;;1.00;;
20908;SDS011;10614;53.198;6.570;2024-03-02T10:49:41;1.42;;;0.90;;
20908;SDS011;10614;53.198;6.570;2024-03-02T10:51:43;2.33;;;1.20;;
20908;SDS011;10614;53.198;6.570;2024-03-02T10:53:45;3.45;;;1.00;;
20908;SDS011;10614;53.198;6.570;2024-03-02T10:55:46;2.83;;;1.30;;
20908;SDS011;10614;53.198;6.570;2024-03-02T10:57:57;2.38;;;1.02;;
20908;SDS011;10614;53.198;6.570;2024-03-02T11:00:04;2.83;;;1.15;;
20908;SDS011;10614;53.198;6.570;2024-03-02T11:02:14;1.98;;;1.13;;
20908;SDS011;10614;53.198;6.570;2024-03-02T11:04:18;2.30;;;1.20;;
20908;SDS011;10614;53.198;6.570;2024-03-02T11:06:24;4.53;;;1.27;;
20908;SDS011;10614;53.198;6.570;2024-03-02T11:08:28;3.20;;;1.27;;
20908;SDS011;10614;53.198;6.570;2024-03-02T11:10:34;3.75;;;1.10;;
20908;SDS011;10614;53.198;6.570;2024-03-02T11:12:39;4.57;;;1.38;;
20908;SDS011;10614;53.198;6.570;2024-03-02T11:14:49;5.85;;;2.90;;
20908;SDS011;10614;53.198;6.570;2024-03-02T11:16:53;4.10;;;1.80;;
20908;SDS011;10614;53.198;6.570;2024-03-02T11:18:54;2.58;;;1.30;;
20908;SDS011;10614;53.198;6.570;2024-03-02T11:20:56;2.70;;;1.10;;
20908;SDS011;10614;53.198;6.570;2024-03-02T11:23:05;3.63;;;2.33;;
20908;SDS011;10614;53.198;6.570;2024-03-02T11:25:11;3.72;;;1.65;;
20908;SDS011;10614;53.198;6.570;2024-03-02T11:30:01;2.05;;;1.20;;
20908;SDS011;10614;53.198;6.570;2024-03-02T11:32:04;2.58;;;1.27;;
20908;SDS011;10614;53.198;6.570;2024-03-02T11:34:17;2.55;;;1.30;;
20908;SDS011;10614;53.198;6.570;2024-03-02T11:36:19;2.60;;;1.45;;
20908;SDS011;10614;53.198;6.570;2024-03-02T11:38:23;2.78;;;1.20;;
20908;SDS011;10614;53.198;6.570;2024-03-02T11:40:28;3.38;;;1.17;;
20908;SDS011;10614;53.198;6.570;2024-03-02T11:42:31;2.25;;;1.10;;
20908;SDS011;10614;53.198;6.570;2024-03-02T11:44:33;4.07;;;1.20;;
20908;SDS011;10614;53.198;6.570;2024-03-02T11:46:36;1.23;;;1.10;;
20908;SDS011;10614;53.198;6.570;2024-03-02T11:48:39;2.38;;;1.00;;
20908;SDS011;10614;53.198;6.570;2024-03-02T11:50:42;2.60;;;1.10;;
20908;SDS011;10614;53.198;6.570;2024-03-02T11:52:46;2.72;;;1.08;;
20908;SDS011;10614;53.198;6.570;2024-03-02T11:54:51;3.97;;;1.00;;
20908;SDS011;10614;53.198;6.570;2024-03-02T11:56:55;3.10;;;1.42;;
20908;SDS011;10614;53.198;6.570;2024-03-02T11:58:56;2.63;;;1.10;;
20908;SDS011;10614;53.198;6.570;2024-03-02T12:00:58;3.25;;;1.60;;
20908;SDS011;10614;53.198;6.570;2024-03-02T12:03:01;4.90;;;2.08;;
20908;SDS011;10614;53.198;6.570;2024-03-02T12:05:05;2.50;;;1.23;;
20908;SDS011;10614;53.198;6.570;2024-03-02T12:07:08;3.22;;;1.40;;
20908;SDS011;10614;53.198;6.570;2024-03-02T12:09:11;2.42;;;1.30;;
20908;SDS011;10614;53.198;6.570;2024-03-02T12:11:16;2.83;;;1.30;;
20908;SDS011;10614;53.198;6.570;2024-03-02T12:13:18;2.30;;;1.20;;
20908;SDS011;10614;53.198;6.570;2024-03-02T12:15:22;2.33;;;1.17;;
20908;SDS011;10614;53.198;6.570;2024-03-02T12:17:25;1.98;;;1.00;;
20908;SDS011;10614;53.198;6.570;2024-03-02T12:19:27;1.40;;;0.90;;
20908;SDS011;10614;53.198;6.570;2024-03-02T12:21:30;2.28;;;1.20;;
20908;SDS011;10614;53.198;6.570;2024-03-02T12:23:32;4.25;;;1.63;;
20908;SDS011;10614;53.198;6.570;2024-03-02T12:25:34;3.03;;;1.23;;
20908;SDS011;10614;53.198;6.570;2024-03-02T12:27:38;2.13;;;1.17;;
20908;SDS011;10614;53.198;6.570;2024-03-02T12:29:39;3.00;;;1.13;;
20908;SDS011;10614;53.198;6.570;2024-03-02T12:31:41;3.58;;;1.80;;
20908;SDS011;10614;53.198;6.570;2024-03-02T12:33:45;3.90;;;1.90;;
20908;SDS011;10614;53.198;6.570;2024-03-02T12:35:48;5.28;;;1.60;;